Latest Weather Observations for Launceston

IDT60801

Issued at 9:35 am EST Saturday 23 August 2014 (issued every 30 minutes, with the page automatically refreshed every 10 minutes)

About weather observations | Map of weather stations | Latest weather observations for TAS | Other Formats
Station Details ID: 091237 Name: LAUNCESTON (TI TREE BEND) Lat: -41.42 Lon: 147.12 Height: 5.0 m
Data from the previous 72 hours. | See also: Recent months at Launceston
Date/Time
EST
Temp
°C
App
Temp
°C
Dew
Point
Rel
Hum
%
Delta-T
°C
Wind Press
QNH
hPa
Press
MSL
hPa
Rain
since 9 am
mm
Dir
 
Spd
km/h
Gust
km/h
Spd
kts
Gust
kts
23/09:30am 11.1 10.3 8.3 83 1.4 NE 2 4 1 2 - - 0.0
23/09:00am 9.4 8.2 8.2 92 0.6 ESE 4 7 2 4 - - 0.0
23/08:30am 7.2 5.3 6.5 95 0.3 SSE 6 9 3 5 - - 0.0
23/08:00am 6.5 4.8 6.1 97 0.2 E 4 7 2 4 - - 0.0
23/07:30am 5.7 4.3 5.3 97 0.2 E 2 6 1 3 - - 0.0
23/07:00am 5.2 3.2 4.6 96 0.3 ESE 4 6 2 3 - - 0.0
23/06:30am 6.0 3.9 5.6 97 0.2 ESE 6 7 3 4 - - 0.0
23/06:00am 6.2 4.9 5.8 97 0.2 SSE 2 4 1 2 - - 0.0
23/05:30am 6.3 4.6 5.9 97 0.2 E 4 7 2 4 - - 0.0
23/05:00am 6.4 5.5 6.0 97 0.2 CALM 0 2 0 1 - - 0.0
23/04:30am 5.9 4.8 5.3 96 0.3 CALM 0 0 0 0 - - 0.0
23/04:00am 6.5 5.6 5.9 96 0.3 CALM 0 2 0 1 - - 0.0
23/03:30am 7.2 5.3 6.6 96 0.3 E 6 9 3 5 - - 0.0
23/03:00am 6.9 5.6 6.2 95 0.3 S 2 4 1 2 - - 0.0
23/02:30am 7.1 5.8 6.2 94 0.4 ESE 2 4 1 2 - - 0.0
23/02:00am 7.7 6.2 6.8 94 0.4 S 4 6 2 3 - - 0.0
23/01:30am 7.4 6.6 6.7 95 0.3 CALM 0 4 0 2 - - 0.0
23/01:00am 7.3 6.1 6.6 95 0.3 N 2 7 1 4 - - 0.0
23/12:30am 7.3 5.7 6.4 94 0.4 ENE 4 7 2 4 - - 0.0
23/12:00am 7.5 6.0 6.6 94 0.4 SE 4 6 2 3 - - 0.0
 
Date/Time
EST
Temp
°C
App
Temp
°C
Dew
Point
Rel
Hum
%
Delta-T
°C
Wind Press
QNH
hPa
Press
MSL
hPa
Rain
since 9 am
mm
Dir
 
Spd
km/h
Gust
km/h
Spd
kts
Gust
kts
22/11:30pm 7.2 6.4 6.5 95 0.3 CALM 0 4 0 2 - - 0.0
22/11:00pm 7.2 6.0 6.6 96 0.3 E 2 7 1 4 - - 0.0
22/10:30pm 6.8 5.9 6.1 95 0.3 CALM 0 0 0 0 - - 0.0
22/10:00pm 7.0 5.7 6.1 94 0.4 ESE 2 4 1 2 - - 0.0
22/09:30pm 7.3 6.5 6.6 95 0.3 CALM 0 0 0 0 - - 0.0
22/09:00pm 7.4 6.6 6.5 94 0.4 CALM 0 0 0 0 - - 0.0
22/08:30pm 7.8 7.0 6.7 93 0.5 CALM 0 0 0 0 - - 0.0
22/08:00pm 8.4 7.8 7.2 92 0.6 CALM 0 0 0 0 - - 0.0
22/07:30pm 8.8 8.2 7.4 91 0.7 CALM 0 0 0 0 - - 0.0
22/07:00pm 9.7 8.9 8.0 89 0.8 N 2 4 1 2 - - 0.0
22/06:30pm 10.3 9.8 7.9 85 1.2 CALM 0 0 0 0 - - 0.0
22/06:00pm 12.0 11.3 8.7 80 1.6 NNW 2 4 1 2 - - 0.0
22/05:30pm 12.5 11.4 8.4 76 2.0 NW 4 6 2 3 - - 0.0
22/05:00pm 13.0 11.4 8.7 75 2.2 NNW 7 9 4 5 - - 0.0
22/04:30pm 13.9 11.8 8.3 69 2.8 NW 9 13 5 7 - - 0.0
22/04:00pm 15.1 12.5 7.9 62 3.6 NW 11 19 6 10 - - 0.0
22/03:30pm 16.6 12.7 7.0 53 4.8 N 17 24 9 13 - - 0.0
22/03:00pm 16.0 12.7 8.2 60 3.9 N 15 24 8 13 - - 0.0
22/02:30pm 16.2 12.9 7.9 58 4.2 N 15 30 8 16 - - 0.0
22/02:00pm 15.1 11.4 8.1 63 3.5 N 17 30 9 16 - - 0.0
22/01:30pm 15.8 13.2 9.5 66 3.3 N 13 20 7 11 - - 0.0
22/01:00pm 15.9 13.0 9.8 67 3.2 N 15 24 8 13 - - 0.0
22/12:30pm 15.4 13.1 9.1 66 3.2 N 11 19 6 10 - - 0.0
22/12:00pm 14.8 11.3 10.8 77 2.1 NNW 20 28 11 15 - - 0.0
22/11:30am 14.3 13.0 9.3 72 2.6 NW 6 9 3 5 - - 0.0
22/11:00am 14.0 13.7 8.8 71 2.6 CALM 0 2 0 1 - - 0.0
22/10:30am 12.4 11.9 7.9 74 2.2 CALM 0 0 0 0 - - 0.0
22/10:00am 10.3 8.9 7.2 81 1.5 N 4 6 2 3 - - 0.0
22/09:30am 9.1 8.0 6.9 86 1.0 N 2 6 1 3 - - 0.0
22/09:00am 7.3 6.3 5.4 88 0.8 CALM 0 2 0 1 - - 0.0
22/08:30am 6.8 5.4 5.3 90 0.7 ESE 2 4 1 2 - - 0.0
22/08:00am 5.4 3.7 4.2 92 0.5 SSE 2 6 1 3 - - 0.0
22/07:30am 5.1 3.0 4.1 93 0.4 E 4 6 2 3 - - 0.0
22/07:00am 4.9 2.8 3.9 93 0.4 S 4 6 2 3 - - 0.0
22/06:30am 4.6 3.2 3.7 94 0.4 CALM 0 7 0 4 - - 0.0
22/06:00am 4.4 3.0 3.4 93 0.4 CALM 0 0 0 0 - - 0.0
22/05:30am 4.3 2.1 3.4 94 0.4 E 4 7 2 4 - - 0.0
22/05:00am 4.0 2.1 3.1 94 0.4 ESE 2 4 1 2 - - 0.0
22/04:30am 4.1 2.3 3.2 94 0.4 ESE 2 4 1 2 - - 0.0
22/04:00am 4.2 1.6 3.2 93 0.4 E 6 7 3 4 - - 0.0
22/03:30am 4.2 2.7 3.2 93 0.4 CALM 0 4 0 2 - - 0.0
22/03:00am 4.6 2.0 3.4 92 0.5 ESE 6 7 3 4 - - 0.0
22/02:30am 5.0 2.5 3.7 91 0.5 E 6 7 3 4 - - 0.0
22/02:00am 5.6 4.4 4.6 93 0.4 CALM 0 6 0 3 - - 0.0
22/01:30am 5.7 4.5 4.8 94 0.4 CALM 0 0 0 0 - - 0.0
22/01:00am 5.3 4.1 4.6 95 0.3 CALM 0 4 0 2 - - 0.0
22/12:30am 4.7 3.4 4.0 95 0.3 CALM 0 0 0 0 - - 0.0
22/12:00am 4.5 3.1 3.6 94 0.4 CALM 0 0 0 0 - - 0.0
 
Date/Time
EST
Temp
°C
App
Temp
°C
Dew
Point
Rel
Hum
%
Delta-T
°C
Wind Press
QNH
hPa
Press
MSL
hPa
Rain
since 9 am
mm
Dir
 
Spd
km/h
Gust
km/h
Spd
kts
Gust
kts
21/11:30pm 4.6 2.8 3.6 93 0.4 SSE 2 6 1 3 - - 0.0
21/11:00pm 5.0 3.7 4.0 93 0.4 CALM 0 2 0 1 - - 0.0
21/10:30pm 5.7 4.2 4.8 94 0.4 N 2 2 1 1 - - 0.0
21/10:00pm 5.7 4.5 4.7 93 0.4 CALM 0 2 0 1 - - 0.0
21/09:30pm 6.6 4.8 5.4 92 0.5 ENE 4 6 2 3 - - 0.0
21/09:00pm 7.0 5.7 5.8 92 0.5 W 2 2 1 1 - - 0.0
21/08:30pm 7.3 5.2 5.6 89 0.8 WNW 6 6 3 3 - - 0.0
21/08:00pm 8.8 7.7 6.9 88 0.9 WNW 2 6 1 3 - - 0.0
21/07:30pm 9.4 8.7 6.8 84 1.2 CALM 0 0 0 0 - - 0.0
21/07:00pm 9.9 8.8 7.0 82 1.4 NE 2 2 1 1 - - 0.0
21/06:30pm 10.8 9.4 7.1 78 1.8 NW 4 4 2 2 - - 0.0
21/06:00pm 11.1 9.6 6.8 75 2.0 NNW 4 6 2 3 - - 0.0
21/05:30pm 12.0 10.7 7.5 74 2.2 N 4 6 2 3 - - 0.0
21/05:00pm 13.2 11.4 7.2 67 2.9 NNW 6 7 3 4 - - 0.0
21/04:30pm 14.6 13.6 5.4 54 4.3 CALM 0 4 0 2 - - 0.0
21/04:00pm 16.1 15.0 5.1 48 5.2 CALM 0 4 0 2 - - 0.0
21/03:30pm 15.5 14.2 6.2 54 4.5 NW 2 6 1 3 - - 0.0
21/03:00pm 14.6 12.9 5.7 55 4.2 NW 4 7 2 4 - - 0.0
21/02:30pm 15.6 14.6 5.8 52 4.7 CALM 0 4 0 2 - - 0.0
21/02:00pm 15.7 14.6 7.0 56 4.3 N 2 4 1 2 - - 0.0
21/01:30pm 14.5 12.5 6.3 58 3.9 NNW 6 7 3 4 - - 0.0
21/01:00pm 14.5 12.5 6.3 58 3.9 NNW 6 7 3 4 - - 0.0
21/12:30pm 13.6 11.5 6.5 62 3.4 ENE 7 11 4 6 - - 0.0
21/12:00pm 13.7 12.0 7.5 66 3.0 E 6 9 3 5 - - 0.0
21/11:30am 11.4 9.4 6.1 70 2.5 E 6 9 3 5 - - 0.0
21/11:00am 9.9 7.3 5.9 76 1.8 E 9 13 5 7 - - 0.0
21/10:30am 9.7 7.4 5.7 76 1.8 E 7 11 4 6 - - 0.0
21/10:00am 8.6 6.1 5.0 78 1.6 E 7 9 4 5 - - 0.0
21/09:30am 7.0 4.4 4.1 82 1.2 E 7 9 4 5 - - 0.0
21/09:00am 6.3 3.8 4.0 85 1.0 ESE 6 9 3 5 - - 0.0
21/08:30am 4.3 1.6 2.8 90 0.6 E 6 7 3 4 - - 0.0
21/08:00am 2.9 0.5 2.2 95 0.3 E 4 6 2 3 - - 0.0
21/07:30am 1.5 -0.3 1.1 97 0.2 CALM 0 0 0 0 - - 0.0
21/07:00am 0.9 -1.0 0.3 96 0.2 CALM 0 0 0 0 - - 0.0
21/06:30am 1.5 -0.3 0.9 96 0.2 CALM 0 0 0 0 - - 0.0
21/06:00am 1.5 -0.3 0.9 96 0.2 CALM 0 0 0 0 - - 0.0
21/05:30am 1.7 -0.5 1.0 95 0.3 ESE 2 6 1 3 - - 0.0
21/05:00am 2.3 -0.2 1.6 95 0.3 E 4 6 2 3 - - 0.0
21/04:30am 2.4 -0.1 1.7 95 0.3 ESE 4 6 2 3 - - 0.0
21/04:00am 2.7 1.0 2.0 95 0.3 CALM 0 0 0 0 - - 0.0
21/03:30am 3.0 1.4 2.3 95 0.3 CALM 0 0 0 0 - - 0.0
21/03:00am 3.2 1.6 2.2 93 0.4 CALM 0 0 0 0 - - 0.0
21/02:30am 3.5 1.1 2.3 92 0.5 E 4 6 2 3 - - 0.0
21/02:00am 4.0 2.1 2.7 91 0.5 E 2 2 1 1 - - 0.0
21/01:30am 4.5 3.0 3.0 90 0.6 CALM 0 4 0 2 - - 0.0
21/01:00am 4.9 3.1 3.6 91 0.5 E 2 4 1 2 - - 0.0
21/12:30am 4.8 2.6 3.5 91 0.5 E 4 4 2 2 - - 0.0
21/12:00am 4.8 2.6 3.3 90 0.6 E 4 7 2 4 - - 0.0
 
Date/Time
EST
Temp
°C
App
Temp
°C
Dew
Point
Rel
Hum
%
Delta-T
°C
Wind Press
QNH
hPa
Press
MSL
hPa
Rain
since 9 am
mm
Dir
 
Spd
km/h
Gust
km/h
Spd
kts
Gust
kts
20/11:30pm 5.2 3.8 3.5 89 0.7 CALM 0 0 0 0 - - 0.0
20/11:00pm 5.6 4.3 4.2 91 0.6 CALM 0 0 0 0 - - 0.0
20/10:30pm 5.3 4.0 4.1 92 0.5 CALM 0 0 0 0 - - 0.0
20/10:00pm 5.3 4.0 4.3 93 0.4 CALM 0 0 0 0 - - 0.0
20/09:30pm 5.0 3.7 4.0 93 0.4 CALM 0 2 0 1 - - 0.0
20/09:00pm 5.3 4.0 4.3 93 0.4 CALM 0 0 0 0 - - 0.0
20/08:30pm 5.9 4.7 4.4 90 0.6 CALM 0 0 0 0 - - 0.0
20/08:00pm 6.9 5.7 4.7 86 1.0 CALM 0 0 0 0 - - 0.0
20/07:30pm 8.3 6.1 5.4 82 1.3 NNW 6 7 3 4 - - 0.0
20/07:00pm 8.9 6.7 5.3 78 1.6 NW 6 7 3 4 - - 0.0
20/06:30pm 9.4 6.9 4.6 72 2.1 NNW 7 9 4 5 - - 0.0
20/06:00pm 10.6 8.3 4.7 67 2.7 NNW 6 11 3 6 - - 0.0
20/05:30pm 12.3 10.2 3.8 56 3.8 NW 4 6 2 3 - - 0.0
20/05:00pm 13.8 11.4 4.1 52 4.4 NW 6 6 3 3 - - 0.0
20/04:30pm 14.6 12.3 2.5 44 5.4 NNW 4 6 2 3 - - 0.0
20/04:00pm 15.2 13.3 3.0 44 5.5 NW 2 6 1 3 - - 0.0
20/03:30pm 15.2 12.5 2.7 43 5.6 NW 6 9 3 5 - - 0.0
20/03:00pm 15.3 12.6 2.8 43 5.6 NW 6 11 3 6 - - 0.0
20/02:30pm 15.6 13.5 3.7 45 5.5 WNW 4 7 2 4 - - 0.0
20/02:00pm 15.1 12.6 3.9 47 5.1 WNW 6 9 3 5 - - 0.0
20/01:30pm 14.8 12.2 3.0 45 5.3 N 6 7 3 4 - - 0.0
20/01:00pm 14.0 11.6 2.0 44 5.2 E 4 9 2 5 - - 0.0
20/12:30pm 13.4 10.8 3.2 50 4.5 S 6 9 3 5 - - 0.0
20/12:00pm 13.1 10.5 3.2 51 4.4 ESE 6 11 3 6 - - 0.0
20/11:30am 12.7 9.9 3.4 53 4.1 SSE 7 17 4 9 - - 0.0
20/11:00am 12.1 9.7 4.3 59 3.5 SSE 6 11 3 6 - - 0.0
20/10:30am 11.3 9.0 5.0 65 2.9 E 6 9 3 5 - - 0.0
20/10:00am 9.8 7.4 4.4 69 2.4 E 6 9 3 5 - - 0.0

Other Formats:

Comma delimited format used in spreadsheet applications
http://www.bom.gov.au/fwo/IDT60801/IDT60801.94969.axf

JavaScript Object Notation format (JSON) in row-major order
http://www.bom.gov.au/fwo/IDT60801/IDT60801.94969.json